createdAt,value
2022-11-29T00:01:45.101Z,12.45
2022-11-29T00:04:14.130Z,15.10
2022-11-29T00:06:43.073Z,15.02
2022-11-29T00:09:14.552Z,14.75
2022-11-29T00:12:02.668Z,13.23
2022-11-29T00:14:31.685Z,13.77
2022-11-29T00:17:05.511Z,11.98
2022-11-29T00:19:36.377Z,11.63
2022-11-29T00:22:06.824Z,16.77
2022-11-29T00:24:35.859Z,13.10
2022-11-29T00:27:05.055Z,11.88
2022-11-29T00:29:33.982Z,11.20
2022-11-29T00:32:06.954Z,10.43
2022-11-29T00:34:35.869Z,9.30
2022-11-29T00:37:04.836Z,10.10
2022-11-29T00:39:33.961Z,9.75
2022-11-29T00:42:02.855Z,9.52
2022-11-29T00:44:31.679Z,9.07
2022-11-29T00:47:00.597Z,8.70
2022-11-29T00:49:29.437Z,9.68
2022-11-29T00:51:58.314Z,10.43
2022-11-29T00:54:27.410Z,9.55
2022-11-29T00:56:56.496Z,8.50
2022-11-29T00:59:25.483Z,9.45
2022-11-29T01:01:54.358Z,8.45
2022-11-29T01:04:23.590Z,9.27
2022-11-29T01:06:53.948Z,9.32
2022-11-29T01:09:22.958Z,8.27
2022-11-29T01:11:52.130Z,9.05
2022-11-29T01:14:20.973Z,9.93
2022-11-29T01:16:49.943Z,11.80
2022-11-29T01:19:18.974Z,10.23
2022-11-29T01:21:47.864Z,9.70
2022-11-29T01:24:16.796Z,9.60
2022-11-29T01:26:45.712Z,7.70
2022-11-29T01:29:15.147Z,7.93
2022-11-29T01:31:44.123Z,8.40
2022-11-29T01:34:13.158Z,8.55
2022-11-29T01:36:42.006Z,8.18
2022-11-29T01:39:12.097Z,7.43
2022-11-29T01:41:41.048Z,6.95
2022-11-29T01:44:13.128Z,7.07
2022-11-29T01:46:44.530Z,6.65
2022-11-29T01:49:24.695Z,8.00
2022-11-29T01:52:12.115Z,6.00
2022-11-29T01:54:45.384Z,7.57
2022-11-29T01:57:14.980Z,9.93
2022-11-29T01:59:47.323Z,7.43
2022-11-29T02:02:23.675Z,6.88
2022-11-29T02:04:53.145Z,5.50
2022-11-29T02:07:22.043Z,4.97
2022-11-29T02:09:51.059Z,6.88
2022-11-29T02:12:25.945Z,5.72
2022-11-29T02:15:18.510Z,5.57
2022-11-29T02:17:59.641Z,6.15
2022-11-29T02:21:16.429Z,6.60
2022-11-29T02:24:22.083Z,7.78
2022-11-29T02:27:01.573Z,5.50
2022-11-29T02:29:30.743Z,5.80
2022-11-29T02:32:21.183Z,6.75
2022-11-29T02:35:11.295Z,9.85
2022-11-29T02:38:07.727Z,9.32
2022-11-29T02:40:56.691Z,4.05
2022-11-29T02:43:53.229Z,3.40
2022-11-29T02:46:43.930Z,3.22
2022-11-29T02:49:24.878Z,4.22
2022-11-29T02:52:03.076Z,4.22
2022-11-29T02:54:47.468Z,4.63
2022-11-29T02:57:42.678Z,6.28
2022-11-29T03:00:23.187Z,5.10
2022-11-29T03:02:58.000Z,5.65
2022-11-29T03:05:49.598Z,4.50
2022-11-29T03:08:49.330Z,3.67
2022-11-29T03:11:49.659Z,4.57
2022-11-29T03:14:29.944Z,4.00
2022-11-29T03:17:29.205Z,6.20
2022-11-29T03:20:04.933Z,4.53
2022-11-29T03:23:03.563Z,4.20
2022-11-29T03:26:00.711Z,5.68
2022-11-29T03:28:53.111Z,3.47
2022-11-29T03:31:28.729Z,3.67
2022-11-29T03:34:18.977Z,2.75
2022-11-29T03:36:54.149Z,4.25
2022-11-29T03:39:44.683Z,4.95
2022-11-29T03:42:21.003Z,3.55
2022-11-29T03:45:10.405Z,4.60
2022-11-29T03:48:07.039Z,3.65
2022-11-29T03:50:44.069Z,4.63
2022-11-29T03:53:24.446Z,4.05
2022-11-29T03:55:58.458Z,2.65
2022-11-29T03:58:44.594Z,4.47
2022-11-29T04:01:46.900Z,3.08
2022-11-29T04:04:43.864Z,3.03
2022-11-29T04:07:22.120Z,3.20
2022-11-29T04:10:28.315Z,4.10
2022-11-29T04:13:27.420Z,3.08
2022-11-29T04:16:23.944Z,3.38
2022-11-29T04:19:11.897Z,5.47
2022-11-29T04:22:17.550Z,2.92
2022-11-29T04:25:01.221Z,3.03
2022-11-29T04:30:27.240Z,4.80
2022-11-29T04:33:34.619Z,4.68
2022-11-29T04:36:44.610Z,3.40
2022-11-29T04:39:33.787Z,3.40
2022-11-29T04:42:36.758Z,3.55
2022-11-29T04:45:23.908Z,3.92
2022-11-29T04:48:34.206Z,3.47
2022-11-29T04:51:46.419Z,3.25
2022-11-29T04:55:01.400Z,3.40
2022-11-29T04:57:48.971Z,4.28
2022-11-29T05:00:22.089Z,5.07
2022-11-29T05:02:58.457Z,4.13
2022-11-29T05:05:41.644Z,4.22
2022-11-29T05:08:18.670Z,4.03
2022-11-29T05:11:08.885Z,3.17
2022-11-29T05:14:03.636Z,2.67
2022-11-29T05:16:44.790Z,2.58
2022-11-29T05:19:38.071Z,3.85
2022-11-29T05:22:13.118Z,2.53
2022-11-29T05:24:48.293Z,2.90
2022-11-29T05:27:48.088Z,2.67
2022-11-29T05:30:18.401Z,3.65
2022-11-29T05:32:50.067Z,2.85
2022-11-29T05:35:31.171Z,2.53
2022-11-29T05:38:10.701Z,2.67
2022-11-29T05:40:50.008Z,2.90
2022-11-29T05:43:51.060Z,4.43
2022-11-29T05:46:35.512Z,3.92
2022-11-29T05:49:20.419Z,4.30
2022-11-29T05:52:11.061Z,3.35
2022-11-29T05:55:04.421Z,3.00
2022-11-29T05:57:51.725Z,4.03
2022-11-29T06:00:21.603Z,4.35
2022-11-29T06:03:24.126Z,3.78
2022-11-29T06:06:00.146Z,3.60
2022-11-29T06:08:42.297Z,3.30
2022-11-29T06:11:29.514Z,3.00
2022-11-29T06:14:09.058Z,3.58
2022-11-29T06:16:59.159Z,3.22
2022-11-29T06:19:58.599Z,3.10
2022-11-29T06:22:36.759Z,3.17
2022-11-29T06:25:22.077Z,3.30
2022-11-29T06:28:27.231Z,3.60
2022-11-29T06:31:14.354Z,3.55
2022-11-29T06:33:57.885Z,3.38
2022-11-29T06:36:42.344Z,3.03
2022-11-29T06:39:12.078Z,3.13
2022-11-29T06:41:41.165Z,3.30
2022-11-29T06:44:11.218Z,4.00
2022-11-29T06:46:48.726Z,2.67
2022-11-29T06:49:34.051Z,2.70
2022-11-29T06:52:20.991Z,2.95
2022-11-29T06:54:58.135Z,3.47
2022-11-29T06:57:53.748Z,4.18
2022-11-29T07:00:28.141Z,3.53
2022-11-29T07:03:34.289Z,5.32
2022-11-29T07:06:12.939Z,3.03
2022-11-29T07:08:41.968Z,2.78
2022-11-29T07:11:15.292Z,3.08
2022-11-29T07:13:44.628Z,2.90
2022-11-29T07:16:26.172Z,3.40
2022-11-29T07:19:13.721Z,3.90
2022-11-29T07:22:07.078Z,3.53
2022-11-29T07:24:54.344Z,3.43
2022-11-29T07:27:51.923Z,4.10
2022-11-29T07:30:58.957Z,4.78
2022-11-29T07:33:36.777Z,4.57
2022-11-29T07:36:23.522Z,3.92
2022-11-29T07:39:13.876Z,3.35
2022-11-29T07:42:24.329Z,3.67
2022-11-29T07:45:15.186Z,3.67
2022-11-29T07:47:47.384Z,4.78
2022-11-29T07:50:16.718Z,3.53
2022-11-29T07:52:46.138Z,2.90
2022-11-29T07:55:20.800Z,3.08
2022-11-29T07:57:50.702Z,3.10
2022-11-29T08:00:21.003Z,3.22
2022-11-29T08:02:51.253Z,4.30
2022-11-29T08:05:20.500Z,4.45
2022-11-29T08:07:49.597Z,4.90
2022-11-29T08:10:21.712Z,3.70
2022-11-29T08:12:53.051Z,2.97
2022-11-29T08:15:26.560Z,4.05
2022-11-29T08:17:55.509Z,4.20
2022-11-29T08:20:24.504Z,3.55
2022-11-29T08:23:01.152Z,2.83
2022-11-29T08:25:30.244Z,2.28
2022-11-29T08:27:59.177Z,2.45
2022-11-29T08:30:28.069Z,3.78
2022-11-29T08:32:57.065Z,3.42
2022-11-29T08:35:26.928Z,2.55
2022-11-29T08:37:56.594Z,2.72
2022-11-29T08:40:25.678Z,2.78
2022-11-29T08:42:59.709Z,3.47
2022-11-29T08:45:28.732Z,3.50
2022-11-29T08:47:57.749Z,3.38
2022-11-29T08:50:26.849Z,3.22
2022-11-29T08:53:14.048Z,3.10
2022-11-29T08:55:43.971Z,2.92
2022-11-29T08:58:15.608Z,3.72
2022-11-29T09:00:47.966Z,5.03
2022-11-29T09:03:34.825Z,3.50
2022-11-29T09:06:16.112Z,2.53
2022-11-29T09:08:46.171Z,2.33
2022-11-29T09:11:20.984Z,2.40
2022-11-29T09:13:54.187Z,2.85
2022-11-29T09:16:26.507Z,2.30
2022-11-29T09:18:57.098Z,3.33
2022-11-29T09:21:27.636Z,3.67
2022-11-29T09:24:00.332Z,3.60
2022-11-29T09:26:32.271Z,2.65
2022-11-29T09:29:02.575Z,4.20
2022-11-29T09:31:33.063Z,4.03
2022-11-29T09:34:02.465Z,4.80
2022-11-29T09:36:32.603Z,5.97
2022-11-29T09:39:03.997Z,4.35
2022-11-29T09:41:48.343Z,5.10
2022-11-29T09:44:42.186Z,2.60
2022-11-29T09:47:29.506Z,3.08
2022-11-29T09:50:36.142Z,2.75
2022-11-29T09:53:27.731Z,3.03
2022-11-29T09:56:41.658Z,3.33
2022-11-29T09:59:26.038Z,2.67
2022-11-29T10:02:07.412Z,3.00
2022-11-29T10:04:42.667Z,3.55
2022-11-29T10:07:36.038Z,3.90
2022-11-29T10:10:47.743Z,3.60
2022-11-29T10:13:24.372Z,4.05
2022-11-29T10:16:13.559Z,3.60
2022-11-29T10:19:05.066Z,4.07
2022-11-29T10:21:40.434Z,5.18
2022-11-29T10:24:18.923Z,3.78
2022-11-29T10:26:48.770Z,3.75
2022-11-29T10:29:18.787Z,3.25
2022-11-29T10:31:50.518Z,3.38
2022-11-29T10:34:22.451Z,2.90
2022-11-29T10:37:02.475Z,3.40
2022-11-29T10:39:50.805Z,3.45
2022-11-29T10:42:46.690Z,4.00
2022-11-29T10:45:57.087Z,3.90
2022-11-29T10:48:35.076Z,5.55
2022-11-29T10:51:04.540Z,5.65
2022-11-29T10:53:38.191Z,5.90
2022-11-29T10:56:36.558Z,5.95
2022-11-29T10:59:10.092Z,38.78
2022-11-29T11:01:45.979Z,17.13
2022-11-29T11:04:44.468Z,7.82
2022-11-29T11:07:37.406Z,7.78
2022-11-29T11:10:30.332Z,8.48
2022-11-29T11:13:22.838Z,8.30
2022-11-29T11:15:57.056Z,5.75
2022-11-29T11:18:31.989Z,5.80
2022-11-29T11:21:05.839Z,4.75
2022-11-29T11:23:42.615Z,5.60
2022-11-29T11:26:14.563Z,5.63
2022-11-29T11:29:01.853Z,5.75
2022-11-29T11:31:40.738Z,5.93
2022-11-29T11:34:38.772Z,8.07
2022-11-29T11:37:16.897Z,6.78
2022-11-29T11:39:47.491Z,6.07
2022-11-29T11:42:40.644Z,7.53
2022-11-29T11:45:12.688Z,6.90
2022-11-29T11:47:48.436Z,7.18
2022-11-29T11:50:34.036Z,8.40
2022-11-29T11:53:19.420Z,7.30
2022-11-29T11:56:00.654Z,10.93
2022-11-29T11:58:34.464Z,23.63
2022-11-29T12:01:26.306Z,15.25
2022-11-29T12:04:07.348Z,10.60
2022-11-29T12:06:53.392Z,7.95
2022-11-29T12:09:35.712Z,7.47
2022-11-29T12:12:22.900Z,6.68
2022-11-29T12:15:04.595Z,6.72
2022-11-29T12:17:51.697Z,6.18
2022-11-29T12:20:35.870Z,6.78
2022-11-29T12:23:13.913Z,7.60
2022-11-29T12:26:19.237Z,7.70
2022-11-29T12:29:01.796Z,7.05
2022-11-29T12:31:42.917Z,6.47
2022-11-29T12:34:48.756Z,7.60
2022-11-29T12:37:44.952Z,7.35
2022-11-29T12:40:39.698Z,13.00
2022-11-29T12:43:43.839Z,6.55
2022-11-29T12:46:29.244Z,7.30
2022-11-29T12:49:16.417Z,7.57
2022-11-29T12:52:15.855Z,8.48
2022-11-29T12:55:24.629Z,6.05
2022-11-29T12:58:10.791Z,8.57
2022-11-29T13:00:51.995Z,8.90
2022-11-29T13:03:54.708Z,8.85
2022-11-29T13:06:33.213Z,8.90
2022-11-29T13:09:20.305Z,8.70
2022-11-29T13:11:59.733Z,8.93
2022-11-29T13:14:56.724Z,9.90
2022-11-29T13:17:36.035Z,11.75
2022-11-29T13:20:37.254Z,12.02
2022-11-29T13:23:45.925Z,11.30
2022-11-29T13:26:22.051Z,11.90
2022-11-29T13:28:51.815Z,13.23
2022-11-29T13:31:24.108Z,12.43
2022-11-29T13:34:08.838Z,10.43
2022-11-29T13:36:51.958Z,11.40
2022-11-29T13:39:29.931Z,10.30
2022-11-29T13:42:22.294Z,11.80
2022-11-29T13:45:04.498Z,10.13
2022-11-29T13:47:33.475Z,11.73
2022-11-29T13:50:26.706Z,12.27
2022-11-29T13:53:24.633Z,10.68
2022-11-29T13:56:02.321Z,12.70
2022-11-29T13:58:38.503Z,10.45
2022-11-29T14:01:12.969Z,10.07
2022-11-29T14:03:50.075Z,10.45
2022-11-29T14:06:33.729Z,10.85
2022-11-29T14:09:23.553Z,11.77
2022-11-29T14:12:20.129Z,12.90
2022-11-29T14:15:32.515Z,11.48
2022-11-29T14:18:04.465Z,12.43
2022-11-29T14:20:33.679Z,13.35
2022-11-29T14:30:08.780Z,12.35
2022-11-29T14:39:28.400Z,11.88
2022-11-29T14:45:42.217Z,13.02
2022-11-29T14:48:34.314Z,13.05
2022-11-29T14:51:21.849Z,11.75
2022-11-29T14:54:15.117Z,13.52
2022-11-29T14:56:47.507Z,13.10
2022-11-29T14:59:48.777Z,14.23
2022-11-29T15:02:28.512Z,13.75
2022-11-29T15:05:20.872Z,14.30
2022-11-29T15:08:32.664Z,12.93
2022-11-29T15:11:14.535Z,12.15
2022-11-29T15:14:15.608Z,12.40
2022-11-29T15:17:03.966Z,13.13
2022-11-29T15:20:05.878Z,13.13
2022-11-29T15:23:02.509Z,13.50
2022-11-29T15:25:38.120Z,13.68
2022-11-29T15:28:09.347Z,13.57
2022-11-29T15:30:41.991Z,12.80
2022-11-29T15:33:28.303Z,12.93
2022-11-29T15:36:07.260Z,16.75
2022-11-29T15:38:54.799Z,14.93
2022-11-29T15:41:33.433Z,13.43
2022-11-29T15:44:09.681Z,15.98
2022-11-29T15:46:39.900Z,16.70
2022-11-29T15:49:30.317Z,17.55
2022-11-29T15:52:07.194Z,16.00
2022-11-29T15:54:47.362Z,15.90
2022-11-29T15:57:37.962Z,17.95
2022-11-29T16:00:13.953Z,15.95
2022-11-29T16:02:53.123Z,15.95
2022-11-29T16:05:28.762Z,14.10
2022-11-29T16:08:09.229Z,12.93
2022-11-29T16:10:51.842Z,16.15
2022-11-29T16:13:40.901Z,14.50
2022-11-29T16:16:23.654Z,14.60
2022-11-29T16:18:56.982Z,15.43
2022-11-29T16:21:33.206Z,13.93
2022-11-29T16:24:16.775Z,13.93
2022-11-29T16:26:50.016Z,13.43
2022-11-29T16:29:35.066Z,13.82
2022-11-29T16:32:40.424Z,14.18
2022-11-29T16:35:21.156Z,13.35
2022-11-29T16:37:51.976Z,14.63
2022-11-29T16:40:34.330Z,15.50
2022-11-29T16:43:13.463Z,15.05
2022-11-29T16:45:45.236Z,15.20
2022-11-29T16:48:41.904Z,15.43
2022-11-29T16:51:15.310Z,29.33
2022-11-29T16:53:58.019Z,23.80
2022-11-29T16:56:31.135Z,19.80
2022-11-29T16:59:16.928Z,21.10
2022-11-29T17:04:28.327Z,18.27
2022-11-29T17:06:59.501Z,17.38
2022-11-29T17:09:34.305Z,15.93
2022-11-29T17:12:05.430Z,13.23
2022-11-29T17:14:37.056Z,14.60
2022-11-29T17:17:10.541Z,31.55
2022-11-29T17:19:40.884Z,21.35
2022-11-29T17:22:11.623Z,12.60
2022-11-29T17:24:47.994Z,12.95
2022-11-29T17:27:26.161Z,12.02
2022-11-29T17:29:56.235Z,12.07
2022-11-29T17:32:28.800Z,15.63
2022-11-29T17:35:01.197Z,13.65
2022-11-29T17:37:32.617Z,12.48
2022-11-29T17:40:04.099Z,14.45
2022-11-29T17:42:38.419Z,14.48
2022-11-29T17:45:09.982Z,12.02
2022-11-29T17:47:40.065Z,13.75
2022-11-29T17:50:10.516Z,11.68
2022-11-29T17:52:44.577Z,13.50
2022-11-29T17:55:17.028Z,11.80
2022-11-29T17:57:50.604Z,13.10
2022-11-29T18:00:21.368Z,14.30
2022-11-29T18:02:51.520Z,15.52
2022-11-29T18:05:22.571Z,12.35
2022-11-29T18:08:01.641Z,11.43
2022-11-29T18:10:31.993Z,12.73
2022-11-29T18:13:03.123Z,14.57
2022-11-29T18:15:35.258Z,13.18
2022-11-29T18:18:07.002Z,11.93
2022-11-29T18:20:37.062Z,12.50
2022-11-29T18:23:10.044Z,12.32
2022-11-29T18:25:40.167Z,12.32
2022-11-29T18:28:12.834Z,14.60
2022-11-29T18:30:43.104Z,11.65
2022-11-29T18:33:13.201Z,11.10
2022-11-29T18:35:43.246Z,11.20
2022-11-29T18:38:16.155Z,12.93
2022-11-29T18:40:49.313Z,11.77
2022-11-29T18:43:20.012Z,10.82
2022-11-29T18:45:50.323Z,11.77
2022-11-29T18:48:20.773Z,10.90
2022-11-29T18:50:50.770Z,10.32
2022-11-29T18:53:20.698Z,10.57
2022-11-29T18:55:50.563Z,9.80
2022-11-29T18:58:20.392Z,10.52
2022-11-29T19:00:50.362Z,12.82
2022-11-29T19:03:20.475Z,11.23
2022-11-29T19:05:56.798Z,12.32
2022-11-29T19:08:27.272Z,12.18
2022-11-29T19:10:57.331Z,13.88
2022-11-29T19:13:27.763Z,12.02
2022-11-29T19:15:58.109Z,12.45
2022-11-29T19:18:28.364Z,11.30
2022-11-29T19:21:09.139Z,12.20
2022-11-29T19:23:39.134Z,16.80
2022-11-29T19:26:11.520Z,14.23
2022-11-29T19:28:46.838Z,13.27
2022-11-29T19:31:18.425Z,14.55
2022-11-29T19:33:49.659Z,13.20
2022-11-29T19:36:24.218Z,25.55
2022-11-29T19:38:54.787Z,17.23
2022-11-29T19:41:34.356Z,13.45
2022-11-29T19:44:10.109Z,13.68
2022-11-29T19:46:41.960Z,14.05
2022-11-29T19:49:11.652Z,13.57
2022-11-29T19:51:40.926Z,12.40
2022-11-29T19:54:11.637Z,14.38
2022-11-29T19:56:41.079Z,10.80
2022-11-29T19:59:10.726Z,10.38
2022-11-29T20:01:41.749Z,9.27
2022-11-29T20:04:13.962Z,10.43
2022-11-29T20:06:43.368Z,10.55
2022-11-29T20:09:14.870Z,10.25
2022-11-29T20:11:44.017Z,9.50
2022-11-29T20:14:15.575Z,8.90
2022-11-29T20:16:44.683Z,10.20
2022-11-29T20:19:17.059Z,8.73
2022-11-29T20:21:50.389Z,8.45
2022-11-29T20:24:20.585Z,8.05
2022-11-29T20:26:50.817Z,9.48
2022-11-29T20:29:21.219Z,7.95
2022-11-29T20:31:51.216Z,7.15
2022-11-29T20:34:22.090Z,8.30
2022-11-29T20:37:00.289Z,8.38
2022-11-29T20:39:35.183Z,6.75
2022-11-29T20:42:38.080Z,9.00
2022-11-29T20:45:10.510Z,7.20
2022-11-29T20:47:53.121Z,7.53
2022-11-29T20:50:27.271Z,7.38
2022-11-29T20:53:14.527Z,7.30
2022-11-29T20:55:47.943Z,7.68
2022-11-29T20:58:17.675Z,6.68
2022-11-29T21:00:46.758Z,6.70
2022-11-29T21:03:20.450Z,6.53
2022-11-29T21:05:50.739Z,6.43
2022-11-29T21:08:22.994Z,6.68
2022-11-29T21:10:53.394Z,6.10
2022-11-29T21:13:24.405Z,6.20
2022-11-29T21:15:53.743Z,5.85
2022-11-29T21:18:30.596Z,6.38
2022-11-29T21:21:11.702Z,5.80
2022-11-29T21:23:58.947Z,5.60
2022-11-29T21:26:42.211Z,5.40
2022-11-29T21:29:18.475Z,5.13
2022-11-29T21:31:48.937Z,4.88
2022-11-29T21:34:17.877Z,4.50
2022-11-29T21:36:50.316Z,4.50
2022-11-29T21:39:19.306Z,4.47
2022-11-29T21:41:48.240Z,4.85
2022-11-29T21:44:17.300Z,5.30
2022-11-29T21:46:46.244Z,4.60
2022-11-29T21:49:15.225Z,4.88
2022-11-29T21:51:44.188Z,4.65
2022-11-29T21:54:13.083Z,4.28
2022-11-29T21:56:42.045Z,4.78
2022-11-29T21:59:10.923Z,4.82
2022-11-29T22:01:39.902Z,4.85
2022-11-29T22:04:08.954Z,5.03
2022-11-29T22:06:38.000Z,5.05
2022-11-29T22:09:08.762Z,4.85
2022-11-29T22:11:37.752Z,5.25
2022-11-29T22:14:15.082Z,5.00
2022-11-29T22:17:01.752Z,5.72
2022-11-29T22:19:35.819Z,5.45
2022-11-29T22:22:06.929Z,5.03
2022-11-29T22:24:37.985Z,4.93
2022-11-29T22:27:06.993Z,6.03
2022-11-29T22:29:35.902Z,6.22
2022-11-29T22:32:04.930Z,6.00
2022-11-29T22:34:33.830Z,6.40
2022-11-29T22:37:02.751Z,9.82
2022-11-29T22:39:31.637Z,12.10
2022-11-29T22:42:00.499Z,11.07
2022-11-29T22:44:29.637Z,10.80
2022-11-29T22:46:58.569Z,7.75
2022-11-29T22:49:27.513Z,7.10
2022-11-29T22:51:56.464Z,8.48
2022-11-29T22:54:25.349Z,7.97
2022-11-29T22:56:54.340Z,6.88
2022-11-29T22:59:23.205Z,6.97
2022-11-29T23:01:52.127Z,9.00
2022-11-29T23:04:21.056Z,8.95
2022-11-29T23:06:49.982Z,7.90
2022-11-29T23:09:23.174Z,7.20
2022-11-29T23:11:54.713Z,6.50
2022-11-29T23:14:24.967Z,5.72
2022-11-29T23:16:54.062Z,5.35
2022-11-29T23:19:23.189Z,6.18
2022-11-29T23:21:57.343Z,6.05
2022-11-29T23:24:26.370Z,6.85
2022-11-29T23:26:55.241Z,6.32
2022-11-29T23:29:24.152Z,7.53
2022-11-29T23:31:53.144Z,6.30
2022-11-29T23:34:22.091Z,6.20
2022-11-29T23:36:53.093Z,6.43
2022-11-29T23:39:22.384Z,8.32
2022-11-29T23:41:51.405Z,6.50
2022-11-29T23:44:20.380Z,7.20
2022-11-29T23:46:49.228Z,6.88
2022-11-29T23:49:18.142Z,6.25
2022-11-29T23:51:46.980Z,7.10
2022-11-29T23:54:15.909Z,6.40
2022-11-29T23:56:44.857Z,6.88
2022-11-29T23:59:13.847Z,10.95
